createdAt,value
2022-10-01T00:03:54.797Z,96.73
2022-10-01T00:08:55.522Z,97.19
2022-10-01T00:13:58.681Z,97.05
2022-10-01T00:19:00.419Z,97.16
2022-10-01T00:24:03.121Z,97.10
2022-10-01T00:29:07.685Z,97.26
2022-10-01T00:34:09.126Z,97.55
2022-10-01T00:39:11.566Z,97.25
2022-10-01T00:44:35.337Z,97.58
2022-10-01T00:49:39.898Z,97.50
2022-10-01T00:54:44.994Z,97.60
2022-10-01T00:59:48.110Z,97.67
2022-10-01T01:04:49.235Z,98.01
2022-10-01T01:09:52.420Z,98.25
2022-10-01T01:15:07.534Z,97.84
2022-10-01T01:20:43.122Z,97.69
2022-10-01T01:25:49.962Z,98.37
2022-10-01T01:30:57.958Z,98.26
2022-10-01T01:36:04.507Z,98.23
2022-10-01T01:41:07.500Z,98.15
2022-10-01T01:46:12.346Z,98.08
2022-10-01T01:51:18.870Z,97.96
2022-10-01T01:56:19.646Z,97.99
2022-10-01T02:01:37.821Z,97.85
2022-10-01T02:06:57.695Z,97.93
2022-10-01T02:12:08.508Z,97.80
2022-10-01T02:17:17.595Z,97.77
2022-10-01T02:22:24.122Z,97.78
2022-10-01T02:27:30.049Z,98.03
2022-10-01T02:32:33.062Z,97.42
2022-10-01T02:37:36.645Z,98.02
2022-10-01T02:42:38.855Z,97.70
2022-10-01T02:47:45.855Z,98.01
2022-10-01T02:52:53.852Z,98.45
2022-10-01T02:57:54.700Z,98.00
2022-10-01T03:02:57.071Z,98.56
2022-10-01T03:07:57.954Z,98.37
2022-10-01T03:13:01.624Z,98.35
2022-10-01T03:18:03.753Z,98.75
2022-10-01T03:23:04.527Z,98.27
2022-10-01T03:28:05.338Z,98.35
2022-10-01T03:33:07.446Z,98.44
2022-10-01T03:38:08.300Z,98.85
2022-10-01T03:43:09.041Z,98.39
2022-10-01T03:48:11.113Z,98.45
2022-10-01T03:53:12.433Z,98.39
2022-10-01T03:58:13.266Z,98.25
2022-10-01T04:03:16.262Z,98.89
2022-10-01T04:08:20.818Z,98.69
2022-10-01T04:13:24.307Z,98.69
2022-10-01T04:18:26.435Z,97.91
2022-10-01T04:23:28.044Z,98.46
2022-10-01T04:28:29.375Z,98.39
2022-10-01T04:33:31.465Z,97.97
2022-10-01T04:38:32.595Z,98.98
2022-10-01T04:43:33.450Z,98.45
2022-10-01T04:48:35.564Z,98.62
2022-10-01T04:53:36.452Z,98.72
2022-10-01T04:58:37.782Z,98.62
2022-10-01T05:03:39.941Z,98.73
2022-10-01T05:08:40.759Z,98.26
2022-10-01T05:13:41.732Z,98.37
2022-10-01T05:18:43.974Z,97.78
2022-10-01T05:23:44.837Z,97.68
2022-10-01T05:28:45.697Z,97.65
2022-10-01T05:33:48.278Z,97.18
2022-10-01T05:38:49.569Z,96.37
2022-10-01T05:43:51.394Z,96.58
2022-10-01T05:48:53.653Z,96.05
2022-10-01T05:53:55.728Z,95.94
2022-10-01T05:58:56.678Z,95.25
2022-10-01T06:03:58.935Z,95.09
2022-10-01T06:09:00.486Z,94.69
2022-10-01T06:14:01.332Z,94.12
2022-10-01T06:19:03.766Z,93.54
2022-10-01T06:24:05.254Z,93.43
2022-10-01T06:29:06.043Z,93.48
2022-10-01T06:34:08.232Z,92.12
2022-10-01T06:39:08.994Z,91.50
2022-10-01T06:44:09.840Z,90.27
2022-10-01T06:49:12.005Z,89.15
2022-10-01T06:54:12.986Z,88.60
2022-10-01T06:59:13.768Z,90.32
2022-10-01T07:04:15.879Z,87.91
2022-10-01T07:09:16.811Z,85.18
2022-10-01T07:14:17.652Z,84.39
2022-10-01T07:19:19.755Z,83.64
2022-10-01T07:24:20.524Z,83.86
2022-10-01T07:29:21.264Z,82.99
2022-10-01T07:34:24.858Z,82.50
2022-10-01T07:39:25.962Z,81.97
2022-10-01T07:44:27.815Z,81.96
2022-10-01T07:49:29.906Z,82.62
2022-10-01T07:54:30.759Z,82.65
2022-10-01T07:59:31.675Z,81.80
2022-10-01T08:04:52.836Z,81.09
2022-10-01T08:09:53.587Z,79.98
2022-10-01T08:14:54.389Z,78.50
2022-10-01T08:19:56.602Z,76.72
2022-10-01T08:24:57.518Z,76.77
2022-10-01T08:29:58.398Z,75.27
2022-10-01T08:35:01.293Z,74.88
2022-10-01T08:40:02.564Z,74.52
2022-10-01T08:45:11.322Z,74.95
2022-10-01T08:50:24.373Z,75.46
2022-10-01T08:55:28.111Z,72.82
2022-10-01T09:00:31.979Z,72.30
2022-10-01T09:05:42.104Z,71.10
2022-10-01T09:10:46.564Z,68.72
2022-10-01T09:15:54.717Z,68.33
2022-10-01T09:20:59.663Z,68.85
2022-10-01T09:26:01.267Z,71.14
2022-10-01T09:31:13.092Z,70.50
2022-10-01T09:36:24.228Z,69.22
2022-10-01T09:41:24.990Z,69.68
2022-10-01T09:46:26.691Z,69.46
2022-10-01T09:51:39.995Z,69.95
2022-10-01T09:56:47.957Z,70.60
2022-10-01T10:01:52.762Z,69.97
2022-10-01T10:07:01.903Z,70.34
2022-10-01T10:12:03.627Z,71.59
2022-10-01T10:17:07.984Z,69.29
2022-10-01T10:22:23.257Z,69.20
2022-10-01T10:27:28.590Z,69.77
2022-10-01T10:32:29.880Z,67.22
2022-10-01T10:37:37.368Z,65.35
2022-10-01T10:42:38.809Z,65.30
2022-10-01T10:47:46.336Z,68.09
2022-10-01T10:52:48.481Z,69.30
2022-10-01T10:57:49.445Z,72.68
2022-10-01T11:02:55.618Z,77.20
2022-10-01T11:08:01.603Z,80.58
2022-10-01T11:13:24.733Z,82.98
2022-10-01T11:18:52.833Z,84.33
2022-10-01T11:24:13.113Z,86.74
2022-10-01T11:29:28.191Z,88.79
2022-10-01T11:34:56.489Z,90.18
2022-10-01T11:40:04.900Z,91.99
2022-10-01T11:45:15.214Z,92.16
2022-10-01T11:50:19.636Z,93.51
2022-10-01T11:55:43.309Z,94.88
2022-10-01T12:00:53.917Z,95.20
2022-10-01T12:05:58.949Z,96.47
2022-10-01T12:11:07.782Z,97.25
2022-10-01T12:16:17.031Z,96.92
2022-10-01T12:21:23.256Z,98.52
2022-10-01T12:26:36.030Z,97.85
2022-10-01T12:31:44.326Z,98.23
2022-10-01T12:36:57.117Z,99.38
2022-10-01T12:42:15.297Z,99.85
2022-10-01T12:47:35.189Z,99.97
2022-10-01T12:52:48.787Z,100.00
2022-10-01T12:58:01.246Z,100.00
2022-10-01T13:03:36.888Z,100.00
2022-10-01T13:08:50.147Z,100.00
2022-10-01T13:13:54.519Z,100.00
2022-10-01T13:19:03.221Z,100.00
2022-10-01T13:24:13.840Z,100.00
2022-10-01T13:29:31.459Z,100.00
2022-10-01T13:34:37.809Z,100.00
2022-10-01T13:39:42.026Z,100.00
2022-10-01T13:44:44.239Z,100.00
2022-10-01T13:49:53.486Z,100.00
2022-10-01T13:54:57.148Z,100.00
2022-10-01T14:00:07.015Z,100.00
2022-10-01T14:05:29.163Z,100.00
2022-10-01T14:10:35.980Z,100.00
2022-10-01T14:16:00.116Z,100.00
2022-10-01T14:21:10.522Z,100.00
2022-10-01T14:26:20.432Z,100.00
2022-10-01T14:31:32.704Z,100.00
2022-10-01T14:36:37.500Z,100.00
2022-10-01T14:41:38.448Z,98.38
2022-10-01T14:46:40.691Z,96.22
2022-10-01T14:51:51.501Z,93.60
2022-10-01T14:56:53.091Z,91.93
2022-10-01T15:02:02.114Z,92.70
2022-10-01T15:07:12.851Z,91.92
2022-10-01T15:12:15.009Z,91.00
2022-10-01T15:17:23.351Z,89.43
2022-10-01T15:22:27.517Z,86.79
2022-10-01T15:27:28.940Z,86.94
2022-10-01T15:32:31.294Z,84.70
2022-10-01T15:37:35.291Z,83.95
2022-10-01T15:42:37.433Z,82.27
2022-10-01T15:47:40.590Z,81.25
2022-10-01T15:52:58.143Z,80.46
2022-10-01T15:58:06.018Z,79.84
2022-10-01T16:03:20.033Z,80.14
2022-10-01T16:08:24.126Z,79.69
2022-10-01T16:13:36.348Z,80.23
2022-10-01T16:18:38.535Z,82.93
2022-10-01T16:23:43.328Z,83.42
2022-10-01T16:28:44.295Z,83.03
2022-10-01T16:33:47.049Z,82.53
2022-10-01T16:38:48.310Z,82.91
2022-10-01T16:43:49.718Z,83.74
2022-10-01T16:48:52.434Z,85.63
2022-10-01T16:53:55.427Z,85.34
2022-10-01T16:58:56.178Z,83.87
2022-10-01T17:04:06.023Z,84.41
2022-10-01T17:09:07.021Z,84.00
2022-10-01T17:14:08.820Z,83.52
2022-10-01T17:19:12.563Z,83.03
2022-10-01T17:24:13.772Z,84.24
2022-10-01T17:29:14.556Z,83.39
2022-10-01T17:34:17.593Z,83.08
2022-10-01T17:39:18.388Z,83.53
2022-10-01T17:44:19.181Z,83.00
2022-10-01T17:49:21.555Z,83.08
2022-10-01T17:54:22.327Z,82.95
2022-10-01T17:59:25.520Z,82.95
2022-10-01T18:04:30.170Z,83.19
2022-10-01T18:09:30.928Z,82.54
2022-10-01T18:14:31.936Z,81.81
2022-10-01T18:24:55.303Z,81.49
2022-10-01T18:29:56.176Z,80.97
2022-10-01T18:34:59.843Z,80.94
2022-10-01T18:40:06.720Z,80.33
2022-10-01T18:45:15.991Z,81.14
2022-10-01T18:50:25.719Z,81.66
2022-10-01T18:55:35.334Z,81.71
2022-10-01T19:00:46.099Z,82.11
2022-10-01T19:06:19.475Z,81.21
2022-10-01T19:11:32.408Z,79.85
2022-10-01T19:16:47.048Z,80.50
2022-10-01T19:22:00.330Z,80.50
2022-10-01T19:27:13.575Z,78.96
2022-10-01T19:32:18.547Z,80.19
2022-10-01T19:37:29.025Z,80.59
2022-10-01T19:42:35.400Z,81.18
2022-10-01T19:47:41.248Z,80.72
2022-10-01T19:52:45.734Z,81.54
2022-10-01T19:57:48.037Z,82.10
2022-10-01T20:02:54.529Z,82.80
2022-10-01T20:08:01.534Z,82.65
2022-10-01T20:13:17.582Z,83.27
2022-10-01T20:18:28.222Z,82.74
2022-10-01T20:23:43.213Z,82.48
2022-10-01T20:28:53.092Z,82.04
2022-10-01T20:34:03.694Z,81.37
2022-10-01T20:39:13.377Z,82.21
2022-10-01T20:44:16.826Z,82.01
2022-10-01T20:49:29.764Z,81.23
2022-10-01T20:54:36.419Z,81.13
2022-10-01T20:59:42.146Z,81.31
2022-10-01T21:04:52.067Z,81.50
2022-10-01T21:09:57.720Z,81.88
2022-10-01T21:14:58.828Z,81.25
2022-10-01T21:20:11.512Z,80.62
2022-10-01T21:25:23.237Z,81.48
2022-10-01T21:30:24.322Z,80.93
2022-10-01T21:35:32.318Z,81.25
2022-10-01T21:40:50.944Z,80.54
2022-10-01T21:46:00.651Z,80.54
2022-10-01T21:51:09.931Z,79.98
2022-10-01T21:56:39.433Z,79.46
2022-10-01T22:01:55.757Z,80.05
2022-10-01T22:07:03.133Z,79.88
2022-10-01T22:12:07.774Z,80.40
2022-10-01T22:17:14.813Z,80.87
2022-10-01T22:22:21.912Z,80.99
2022-10-01T22:27:27.729Z,80.86
2022-10-01T22:32:34.188Z,81.48
2022-10-01T22:37:39.020Z,82.12
2022-10-01T22:42:45.352Z,81.48
2022-10-01T22:48:11.933Z,81.86
2022-10-01T22:53:32.189Z,81.48
2022-10-01T22:58:59.886Z,81.98
2022-10-01T23:04:11.792Z,81.88
2022-10-01T23:09:19.246Z,81.67
2022-10-01T23:14:39.386Z,81.70
2022-10-01T23:19:48.134Z,81.91
2022-10-01T23:25:05.021Z,81.99
2022-10-01T23:30:11.875Z,82.05
2022-10-01T23:35:18.318Z,83.25
2022-10-01T23:40:22.296Z,83.39
2022-10-01T23:45:29.211Z,83.79
2022-10-01T23:50:36.062Z,84.94
2022-10-01T23:56:04.035Z,84.86
